aviador You're here:

KFUL Decoded Metar

FULLERTON in CA, USA
Report Time2018-01-18 08:53:00
UTC Time2018-01-18 10:01:13
Flight Rules Old
WindCalm
Visibility9999 m
Phenomena:N/A
Clouds:N/A
Expected CloudBase > 800 ft AGL from Temp-Dew spread
CeilingNone
Temp13°C (ISA -2)
Dew Point11°C (88% RH)
QNH1019 hPa
Density Alt-121 ft
Elevation115 ft
Report Wrong Elevation
Raw Report
METAR KFUL 180853Z AUTO 00000KT 7SM CLR 13/11 A3008 RMK AO2 SLP183
T01330111 58007=

Extra information for KFUL:More info

Metar Taf Metar & Taf Last 4 Metars F.Rules Stats Wind Profile Meteogram Temp Stats Airport Information Weather charts Add Link Nearby VenuesMetar ALERT Operation Metar Decoded Social comments

AIRNAV info for KFUL